Search for airport 
image banner adimage banner adimage banner ad
image banner ad

KBVU - Boulder City Muni

Located in Boulder City, United States

ICAO - BVU, IATA -

Data provided by Airmate  

General information

Coordinates: N35°56'50" W114°51'40"
Elevation is 2203 feet MSL.
Magnetic variation is 11° East
View others Airports in Nevada

Operational data

Special qualification required
Current time UTC:
Current local time:
Weather
METAR: KBVU 131055Z AUTO 00000KT 10SM CLR 22/M01 A2981 RMK AO2
View NOTAMs / SUP AIP / TFR affecting this airport [VIEW]
Communications frequencies: [VIEW]

Runways:

RWY identifierQFULength (ft)Width (ft)SurfaceLDA (ft)
09100°510375ASPH
15385275ASPH
27280°510375ASPH
33385275ASPH

Airport contact information

Address: Boulder City United States

Satellite view of KBVU